Time;durP1;ratioP1;P1;durP2;ratioP2;P2;SDS_P1;SDS_P2;PMS_P1;PMS_P2;Temp;Humidity;BMP_temperature;BMP_pressure;BME280_temperature;BME280_humidity;BME280_pressure;Samples;Min_cycle;Max_cycle;Signal;HPM_P1;HPM_P2
2023/07/22 00:00:24;;;;;;;12.00;5.70;;;14.20;75.30;;;;;;5032349;28;20197;-75
2023/07/22 00:02:52;;;;;;;13.23;5.20;;;14.20;75.30;;;;;;5048024;28;20267;-75
2023/07/22 00:05:23;;;;;;;11.30;4.93;;;14.20;75.40;;;;;;5048219;28;20052;-75
2023/07/22 00:07:50;;;;;;;12.95;4.85;;;14.20;75.50;;;;;;5031908;28;20045;-75
2023/07/22 00:10:17;;;;;;;11.80;4.40;;;14.20;75.50;;;;;;5050453;28;20128;-75
2023/07/22 00:12:44;;;;;;;12.97;5.10;;;14.20;75.60;;;;;;5048015;28;20053;-75
2023/07/22 00:15:12;;;;;;;13.25;5.53;;;14.20;75.50;;;;;;5048547;28;20268;-75
2023/07/22 00:17:40;;;;;;;11.73;5.47;;;14.10;75.50;;;;;;5049964;28;20057;-75
2023/07/22 00:20:10;;;;;;;14.30;5.57;;;14.10;75.60;;;;;;5050126;28;20056;-75
2023/07/22 00:22:39;;;;;;;11.25;5.05;;;14.20;75.70;;;;;;5076305;28;20894;-75
2023/07/22 00:25:09;;;;;;;11.47;4.83;;;14.20;75.60;;;;;;5031520;28;20547;-75
2023/07/22 00:27:37;;;;;;;10.57;4.82;;;14.20;75.60;;;;;;5048305;28;20291;-75
2023/07/22 00:30:05;;;;;;;10.23;5.10;;;14.20;75.50;;;;;;5031319;28;20133;-75
2023/07/22 00:32:37;;;;;;;11.05;5.03;;;14.20;75.50;;;;;;5031660;28;20495;-75
2023/07/22 00:35:05;;;;;;;10.45;5.35;;;14.20;75.40;;;;;;5047995;28;20054;-75
2023/07/22 00:37:34;;;;;;;13.60;5.13;;;14.20;75.30;;;;;;5060202;28;20519;-75
2023/07/22 00:40:03;;;;;;;14.90;4.95;;;14.20;75.40;;;;;;5028276;28;20259;-75
2023/07/22 00:42:30;;;;;;;13.05;5.20;;;14.10;75.40;;;;;;5064735;28;20148;-75
2023/07/22 00:44:57;;;;;;;11.45;5.57;;;14.10;75.50;;;;;;5064692;28;20130;-75
2023/07/22 00:47:24;;;;;;;11.40;4.95;;;14.10;75.50;;;;;;5064879;28;20041;-75
2023/07/22 00:49:52;;;;;;;12.57;5.53;;;14.00;75.70;;;;;;5057483;28;20492;-75
2023/07/22 00:52:19;;;;;;;13.40;5.22;;;14.00;75.70;;;;;;5046731;28;20272;-75
2023/07/22 00:54:47;;;;;;;14.10;5.32;;;14.00;75.70;;;;;;5081368;28;20076;-75
2023/07/22 00:57:15;;;;;;;10.80;4.60;;;14.00;75.70;;;;;;5047436;28;20124;-75
2023/07/22 00:59:43;;;;;;;11.90;5.30;;;14.00;75.70;;;;;;5081067;28;20553;-75
2023/07/22 01:02:10;;;;;;;12.63;5.30;;;14.00;75.70;;;;;;5048928;28;20063;-75
2023/07/22 01:04:37;;;;;;;12.20;4.82;;;14.00;75.70;;;;;;5047718;28;20261;-75
2023/07/22 01:07:06;;;;;;;11.50;5.53;;;14.00;75.70;;;;;;5064768;28;20263;-75
2023/07/22 01:09:37;;;;;;;11.98;5.30;;;14.00;75.70;;;;;;5048855;28;20049;-75
2023/07/22 01:12:08;;;;;;;15.15;6.32;;;13.90;75.70;;;;;;5064055;28;20128;-75
2023/07/22 01:14:36;;;;;;;13.33;5.33;;;13.90;75.80;;;;;;5063872;28;20044;-75
2023/07/22 01:17:04;;;;;;;13.00;5.63;;;13.90;75.80;;;;;;5042417;28;20380;-75
2023/07/22 01:19:32;;;;;;;11.73;5.00;;;13.90;76.00;;;;;;5046783;28;20049;-75
2023/07/22 01:22:01;;;;;;;12.25;5.13;;;13.90;76.00;;;;;;5030701;28;20050;-75
2023/07/22 01:24:31;;;;;;;12.07;4.72;;;13.90;76.10;;;;;;5077010;28;20056;-75
2023/07/22 01:26:59;;;;;;;12.67;5.10;;;13.90;76.10;;;;;;5064190;28;20053;-75
2023/07/22 01:29:26;;;;;;;10.75;4.63;;;13.90;76.00;;;;;;5064195;28;20336;-75
2023/07/22 01:31:55;;;;;;;11.50;4.80;;;13.90;76.10;;;;;;5063838;28;20060;-75
2023/07/22 01:34:24;;;;;;;11.60;4.90;;;13.90;76.10;;;;;;5030410;28;20092;-75
2023/07/22 01:36:51;;;;;;;10.43;4.70;;;13.90;76.10;;;;;;5080652;28;20539;-75
2023/07/22 01:39:19;;;;;;;11.17;4.80;;;13.90;76.00;;;;;;5064189;28;20537;-75
2023/07/22 01:41:47;;;;;;;11.55;4.57;;;13.90;76.00;;;;;;5063494;28;20252;-75
2023/07/22 01:44:14;;;;;;;10.65;4.53;;;13.90;76.00;;;;;;5081144;28;20045;-75
2023/07/22 01:46:42;;;;;;;11.98;4.95;;;13.90;75.90;;;;;;5063923;28;20050;-75
2023/07/22 01:49:13;;;;;;;9.52;4.50;;;13.90;75.90;;;;;;5030595;28;20049;-75
2023/07/22 01:51:41;;;;;;;8.53;4.00;;;13.90;75.90;;;;;;5046886;28;20060;-75
2023/07/22 01:54:08;;;;;;;10.35;4.45;;;13.90;75.80;;;;;;5081308;28;20281;-75
2023/07/22 01:56:36;;;;;;;12.20;4.82;;;13.90;75.70;;;;;;5064144;28;20085;-75
2023/07/22 01:59:05;;;;;;;11.90;5.00;;;13.90;75.50;;;;;;5080600;28;20053;-74
2023/07/22 02:01:32;;;;;;;12.20;4.82;;;13.90;75.50;;;;;;5030340;28;20656;-75
2023/07/22 02:03:59;;;;;;;13.23;5.07;;;13.90;75.50;;;;;;5063545;28;20518;-75
2023/07/22 02:06:28;;;;;;;11.55;4.65;;;13.90;75.50;;;;;;5063653;28;20881;-75
2023/07/22 02:08:55;;;;;;;11.50;5.47;;;13.90;75.60;;;;;;5080285;28;20116;-75
2023/07/22 02:11:22;;;;;;;15.48;5.70;;;13.90;75.60;;;;;;5080184;28;20510;-75
2023/07/22 02:13:49;;;;;;;13.80;5.35;;;13.80;75.50;;;;;;5063295;28;20049;-75
2023/07/22 02:16:18;;;;;;;11.37;5.03;;;13.70;75.60;;;;;;5063695;28;20049;-75
2023/07/22 02:18:45;;;;;;;11.68;5.35;;;13.70;75.70;;;;;;5063946;28;20427;-75
2023/07/22 02:21:13;;;;;;;12.35;5.45;;;13.70;75.70;;;;;;5048325;28;20077;-75
2023/07/22 02:23:40;;;;;;;12.68;5.50;;;13.60;75.70;;;;;;5063211;28;20049;-75
2023/07/22 02:26:07;;;;;;;11.60;5.15;;;13.60;75.80;;;;;;5063067;28;20045;-75
2023/07/22 02:28:34;;;;;;;13.47;5.50;;;13.60;75.80;;;;;;5063629;28;20045;-75
2023/07/22 02:31:05;;;;;;;13.13;5.70;;;13.60;75.90;;;;;;5046258;28;20275;-75
2023/07/22 02:33:34;;;;;;;11.77;5.35;;;13.60;76.00;;;;;;5033074;28;20423;-75
2023/07/22 02:36:01;;;;;;;11.55;5.07;;;13.50;76.00;;;;;;5033106;28;20523;-75
2023/07/22 02:38:28;;;;;;;11.88;5.13;;;13.50;76.10;;;;;;5033233;28;20052;-75
2023/07/22 02:40:55;;;;;;;14.90;5.80;;;13.50;76.20;;;;;;5066829;28;20151;-75
2023/07/22 02:43:26;;;;;;;12.70;4.90;;;13.50;76.20;;;;;;5066941;28;20351;-75
2023/07/22 02:45:54;;;;;;;11.60;5.47;;;13.50;76.20;;;;;;5066914;28;20049;-75
2023/07/22 02:48:21;;;;;;;13.80;6.10;;;13.50;76.30;;;;;;5049804;28;20507;-75
2023/07/22 02:50:49;;;;;;;11.32;5.10;;;13.50;76.40;;;;;;5066362;28;20566;-75
2023/07/22 02:53:16;;;;;;;14.03;5.70;;;13.50;76.40;;;;;;5049492;28;20054;-75
2023/07/22 02:55:43;;;;;;;14.68;5.63;;;13.50;76.50;;;;;;5066485;28;20604;-75
2023/07/22 02:58:11;;;;;;;14.77;6.13;;;13.50;76.50;;;;;;5032689;28;20488;-75
2023/07/22 03:00:38;;;;;;;12.95;5.95;;;13.50;76.60;;;;;;5032934;28;20047;-75
2023/07/22 03:03:05;;;;;;;15.57;6.38;;;13.50;76.60;;;;;;5032614;28;20527;-75
2023/07/22 03:05:34;;;;;;;12.33;5.90;;;13.50;76.70;;;;;;5083352;28;20336;-75
2023/07/22 03:08:02;;;;;;;12.48;5.68;;;13.50;76.80;;;;;;5032663;28;20790;-75
2023/07/22 03:10:29;;;;;;;14.73;5.55;;;13.50;76.90;;;;;;5050544;28;20164;-75
2023/07/22 03:12:57;;;;;;;13.20;5.95;;;13.50;76.90;;;;;;5032532;28;20535;-75
2023/07/22 03:15:25;;;;;;;12.93;5.28;;;13.40;76.90;;;;;;5066213;28;20075;-75
2023/07/22 03:17:53;;;;;;;13.33;6.13;;;13.40;77.10;;;;;;5032957;28;20069;-75
2023/07/22 03:20:21;;;;;;;15.07;6.07;;;13.40;77.10;;;;;;5032069;28;20903;-75
2023/07/22 03:22:48;;;;;;;12.48;5.85;;;13.40;77.20;;;;;;5049097;28;20048;-75
2023/07/22 03:25:17;;;;;;;14.60;5.65;;;13.40;77.30;;;;;;5032460;28;20744;-75
2023/07/22 03:27:45;;;;;;;12.18;5.40;;;13.40;77.40;;;;;;5049054;28;20064;-75
2023/07/22 03:30:14;;;;;;;16.13;6.10;;;13.40;77.40;;;;;;5032409;28;20500;-75
2023/07/22 03:32:42;;;;;;;13.23;6.82;;;13.40;77.50;;;;;;5048599;28;20471;-74
2023/07/22 03:35:10;;;;;;;15.07;6.60;;;13.30;77.60;;;;;;5032517;28;20080;-75
2023/07/22 03:37:37;;;;;;;16.23;6.45;;;13.30;77.60;;;;;;5032670;28;20451;-75
2023/07/22 03:40:07;;;;;;;14.15;6.30;;;13.30;77.80;;;;;;5049040;28;20049;-75
2023/07/22 03:42:35;;;;;;;13.73;5.70;;;13.30;77.80;;;;;;5031652;28;20099;-75
2023/07/22 03:45:02;;;;;;;13.93;6.30;;;13.30;77.90;;;;;;5048806;28;20311;-75
2023/07/22 03:47:29;;;;;;;14.13;5.90;;;13.30;77.90;;;;;;5048740;28;20176;-75
2023/07/22 03:49:56;;;;;;;15.70;6.38;;;13.30;78.10;;;;;;5048843;28;20060;-75
2023/07/22 03:52:24;;;;;;;13.63;5.57;;;13.40;78.20;;;;;;5048207;28;20053;-75
2023/07/22 03:54:51;;;;;;;14.30;6.30;;;13.40;78.30;;;;;;5031916;28;20140;-75
2023/07/22 03:57:18;;;;;;;14.07;6.50;;;13.40;78.30;;;;;;5031950;28;20466;-75
2023/07/22 03:59:46;;;;;;;15.25;6.35;;;13.40;78.40;;;;;;5048092;28;20049;-74
2023/07/22 04:02:13;;;;;;;16.30;6.45;;;13.50;78.50;;;;;;5049591;28;20057;-75
2023/07/22 04:04:40;;;;;;;16.02;6.93;;;13.50;78.70;;;;;;5031528;28;20470;-75
2023/07/22 04:07:08;;;;;;;12.93;5.93;;;13.50;78.70;;;;;;5048524;28;20045;-75
2023/07/22 04:09:35;;;;;;;13.93;6.15;;;13.50;78.90;;;;;;5032217;28;20287;-75
2023/07/22 04:12:02;;;;;;;15.60;6.35;;;13.50;78.90;;;;;;5049422;28;20556;-75
2023/07/22 04:14:29;;;;;;;14.18;6.63;;;13.50;79.00;;;;;;5031657;28;20145;-75
2023/07/22 04:17:00;;;;;;;14.18;6.65;;;13.50;79.10;;;;;;5031691;28;20127;-75
2023/07/22 04:19:27;;;;;;;15.93;7.07;;;13.50;79.30;;;;;;5031881;28;20046;-75
2023/07/22 04:21:54;;;;;;;16.27;6.75;;;13.50;79.30;;;;;;5047836;28;20554;-75
2023/07/22 04:24:21;;;;;;;14.75;6.55;;;13.50;79.40;;;;;;5048529;28;20236;-75
2023/07/22 04:26:48;;;;;;;14.52;6.03;;;13.60;79.60;;;;;;5049311;28;20057;-75
2023/07/22 04:29:15;;;;;;;13.73;6.50;;;13.60;79.60;;;;;;5048306;28;20148;-75
2023/07/22 04:31:42;;;;;;;14.23;6.37;;;13.60;79.70;;;;;;5031207;28;20042;-75
2023/07/22 04:34:12;;;;;;;13.52;6.22;;;13.60;79.80;;;;;;5049880;28;20396;-75
2023/07/22 04:36:39;;;;;;;15.38;6.70;;;13.60;80.00;;;;;;5047788;28;20049;-75
2023/07/22 04:39:07;;;;;;;16.58;7.20;;;13.60;80.10;;;;;;5049585;28;20056;-75
2023/07/22 04:41:34;;;;;;;14.85;6.65;;;13.70;80.20;;;;;;5030830;28;20037;-75
2023/07/22 04:44:00;;;;;;;15.63;6.70;;;13.70;80.30;;;;;;5049128;28;20064;-75
2023/07/22 04:46:29;;;;;;;15.25;6.68;;;13.70;80.30;;;;;;5047815;28;20251;-75
2023/07/22 04:48:57;;;;;;;14.98;6.85;;;13.70;80.30;;;;;;5049447;28;20476;-75
2023/07/22 04:51:27;;;;;;;15.43;6.63;;;13.70;80.50;;;;;;5047387;28;20161;-75
2023/07/22 04:53:54;;;;;;;17.02;6.97;;;13.70;80.50;;;;;;5047411;28;20050;-75
2023/07/22 04:56:21;;;;;;;14.10;6.53;;;13.70;80.50;;;;;;5030127;28;20052;-75
2023/07/22 04:58:49;;;;;;;16.30;7.88;;;13.70;80.60;;;;;;5047267;28;20323;-75
2023/07/22 05:01:16;;;;;;;13.75;6.57;;;13.80;80.60;;;;;;5046654;28;20133;-75
2023/07/22 05:03:44;;;;;;;15.63;7.03;;;13.80;80.80;;;;;;5048963;28;20060;-75
2023/07/22 05:06:11;;;;;;;14.73;7.30;;;13.80;80.70;;;;;;5046913;28;20065;-74
2023/07/22 05:08:40;;;;;;;17.77;7.70;;;13.90;80.70;;;;;;5046498;28;20049;-76
2023/07/22 05:11:08;;;;;;;15.18;6.45;;;13.90;80.80;;;;;;5044180;28;20269;-76
2023/07/22 05:13:35;;;;;;;13.93;6.57;;;13.90;80.80;;;;;;5045468;28;20050;-75
2023/07/22 05:16:02;;;;;;;14.82;6.50;;;13.90;80.80;;;;;;5046505;28;20049;-76
2023/07/22 05:18:29;;;;;;;15.05;7.10;;;13.90;81.00;;;;;;5045327;28;20575;-76
2023/07/22 05:20:56;;;;;;;15.53;6.97;;;13.90;81.10;;;;;;5046365;28;20076;-77
2023/07/22 05:23:23;;;;;;;15.38;7.13;;;13.90;81.10;;;;;;5045314;28;20295;-77
2023/07/22 05:25:55;;;;;;;15.75;7.50;;;14.00;81.30;;;;;;5046005;28;20096;-77
2023/07/22 05:28:22;;;;;;;15.82;7.40;;;14.00;81.30;;;;;;5045592;28;20129;-76
2023/07/22 05:30:49;;;;;;;14.73;6.65;;;14.00;81.20;;;;;;5079401;28;20060;-77
2023/07/22 05:33:15;;;;;;;13.77;6.70;;;14.00;81.20;;;;;;5047010;28;20056;-77
2023/07/22 05:35:42;;;;;;;14.43;6.97;;;14.00;81.30;;;;;;5046198;28;20295;-77
2023/07/22 05:38:09;;;;;;;15.45;7.05;;;14.00;81.20;;;;;;5045751;28;20053;-76
2023/07/22 05:40:36;;;;;;;16.35;7.50;;;14.00;81.20;;;;;;5047687;28;20056;-76
2023/07/22 05:43:05;;;;;;;15.00;6.30;;;14.00;81.30;;;;;;5047454;28;20084;-76
2023/07/22 05:45:32;;;;;;;14.17;6.63;;;14.00;81.50;;;;;;5048048;28;20049;-76
2023/07/22 05:47:59;;;;;;;16.15;6.93;;;14.00;81.40;;;;;;5047715;28;20800;-76
2023/07/22 05:50:26;;;;;;;13.98;6.50;;;14.10;81.50;;;;;;5047400;28;20136;-76
2023/07/22 05:52:52;;;;;;;14.10;6.82;;;14.00;81.60;;;;;;5047718;28;20057;-76
2023/07/22 05:55:19;;;;;;;16.05;7.22;;;14.10;81.70;;;;;;5046190;28;20265;-77
2023/07/22 05:57:46;;;;;;;14.93;6.73;;;14.10;81.80;;;;;;5047851;28;20057;-77
2023/07/22 06:00:15;;;;;;;14.88;6.90;;;14.10;81.80;;;;;;5027580;28;21020;-77
2023/07/22 06:02:42;;;;;;;15.73;7.18;;;14.10;82.00;;;;;;5047620;28;20164;-77
2023/07/22 06:05:09;;;;;;;18.35;7.95;;;14.20;82.20;;;;;;5077764;28;20054;-76
2023/07/22 06:07:36;;;;;;;16.90;7.35;;;14.20;82.60;;;;;;5048452;28;20183;-76
2023/07/22 06:10:04;;;;;;;16.50;7.67;;;14.20;82.40;;;;;;5047148;28;20061;-76
2023/07/22 06:12:30;;;;;;;16.65;7.72;;;14.20;82.60;;;;;;5048994;28;20275;-76
2023/07/22 06:14:57;;;;;;;15.02;7.30;;;14.30;82.70;;;;;;5049285;28;20057;-76
2023/07/22 06:17:26;;;;;;;16.98;7.15;;;14.30;82.80;;;;;;5051141;28;20476;-76
2023/07/22 06:19:53;;;;;;;16.85;7.63;;;14.30;82.70;;;;;;5050844;28;20061;-76
2023/07/22 06:22:20;;;;;;;17.57;7.63;;;14.30;82.90;;;;;;5031495;28;20448;-76
2023/07/22 06:24:47;;;;;;;17.08;7.63;;;14.40;83.00;;;;;;5050055;28;20269;-76
2023/07/22 06:27:14;;;;;;;16.95;7.88;;;14.40;82.90;;;;;;5048654;28;20045;-76
2023/07/22 06:29:41;;;;;;;18.23;8.15;;;14.40;83.00;;;;;;5050091;28;20056;-76
2023/07/22 06:32:08;;;;;;;16.70;8.15;;;14.40;83.00;;;;;;5048035;28;20041;-76
2023/07/22 06:34:36;;;;;;;13.43;6.77;;;14.40;83.00;;;;;;5050494;28;20056;-76
2023/07/22 06:37:04;;;;;;;18.42;8.77;;;14.40;82.80;;;;;;5050301;28;20511;-76
2023/07/22 06:39:31;;;;;;;16.13;7.80;;;14.40;82.70;;;;;;5049801;28;20049;-75
2023/07/22 06:41:58;;;;;;;17.48;8.70;;;14.50;83.00;;;;;;5049434;28;20131;-76
2023/07/22 06:44:25;;;;;;;20.20;8.40;;;14.50;82.80;;;;;;5049508;28;20053;-76
2023/07/22 06:46:52;;;;;;;16.27;8.30;;;14.50;82.90;;;;;;5049831;28;20053;-76
2023/07/22 06:49:19;;;;;;;19.25;8.68;;;14.50;82.90;;;;;;5049880;28;20250;-76
2023/07/22 06:51:47;;;;;;;17.80;8.15;;;14.60;83.00;;;;;;5051031;28;20045;-76
2023/07/22 06:54:14;;;;;;;20.42;8.52;;;14.60;83.20;;;;;;5049632;28;20050;-76
2023/07/22 06:56:41;;;;;;;18.67;9.05;;;14.60;83.20;;;;;;5049751;28;20137;-76
2023/07/22 06:59:08;;;;;;;20.53;10.03;;;14.70;83.00;;;;;;5050610;28;20164;-76
2023/07/22 07:01:35;;;;;;;19.45;9.10;;;14.70;83.00;;;;;;5049127;28;20277;-76
2023/07/22 07:04:02;;;;;;;20.90;9.57;;;14.70;82.90;;;;;;5049462;28;20049;-76
2023/07/22 07:06:30;;;;;;;19.95;9.93;;;14.70;83.10;;;;;;5049743;28;20056;-76
2023/07/22 07:09:00;;;;;;;19.23;9.52;;;14.80;83.20;;;;;;5049512;28;20578;-76
2023/07/22 07:11:27;;;;;;;20.33;9.20;;;14.80;83.10;;;;;;5048914;28;20509;-76
2023/07/22 07:13:54;;;;;;;17.50;8.38;;;14.90;83.20;;;;;;5049492;28;20667;-75
2023/07/22 07:16:22;;;;;;;17.38;7.88;;;14.90;82.90;;;;;;5049280;28;20120;-76
2023/07/22 07:18:50;;;;;;;20.00;9.95;;;15.00;83.00;;;;;;5048282;28;20073;-76
2023/07/22 07:21:17;;;;;;;18.38;8.52;;;15.00;82.80;;;;;;5048815;28;20057;-76
2023/07/22 07:23:44;;;;;;;17.57;9.03;;;15.00;82.60;;;;;;5050660;28;20045;-76
2023/07/22 07:26:13;;;;;;;17.80;8.95;;;15.00;82.70;;;;;;5050608;28;20360;-76
2023/07/22 07:28:40;;;;;;;18.55;9.32;;;15.10;82.60;;;;;;5049215;28;20508;-75
2023/07/22 07:31:07;;;;;;;18.50;9.35;;;15.10;82.60;;;;;;5049100;28;20053;-76
2023/07/22 07:33:34;;;;;;;17.20;8.57;;;15.20;82.10;;;;;;5049024;28;20486;-76
2023/07/22 07:36:01;;;;;;;20.50;9.47;;;15.20;81.90;;;;;;5049271;28;20056;-76
2023/07/22 07:38:28;;;;;;;17.25;8.55;;;15.20;81.80;;;;;;5048968;28;20810;-76
2023/07/22 07:40:58;;;;;;;20.33;9.55;;;15.30;81.80;;;;;;5050126;28;20144;-76
2023/07/22 07:43:26;;;;;;;19.33;9.93;;;15.30;81.70;;;;;;5049155;28;20519;-76
2023/07/22 07:46:18;;;;;;;20.58;9.93;;;15.30;81.60;;;;;;5048596;28;20049;-75
2023/07/22 07:48:45;;;;;;;17.57;9.10;;;15.40;81.80;;;;;;5048735;28;20069;-76
2023/07/22 07:51:14;;;;;;;20.65;9.77;;;15.50;81.60;;;;;;5049707;28;20296;-76
2023/07/22 07:53:41;;;;;;;17.85;8.45;;;15.50;81.10;;;;;;5048613;28;20049;-76
2023/07/22 07:56:09;;;;;;;20.10;9.63;;;15.60;81.00;;;;;;5048624;28;20160;-76
2023/07/22 07:58:38;;;;;;;18.77;8.82;;;15.60;81.10;;;;;;5048054;28;20049;-76
2023/07/22 08:01:05;;;;;;;19.20;9.10;;;15.60;81.20;;;;;;5048174;28;20587;-76
2023/07/22 08:03:32;;;;;;;18.70;8.52;;;15.70;81.10;;;;;;5049706;28;20723;-76
2023/07/22 08:05:59;;;;;;;21.60;9.52;;;15.80;81.00;;;;;;5048147;28;20128;-76
2023/07/22 08:08:26;;;;;;;18.88;9.75;;;15.80;80.70;;;;;;5048086;28;20411;-76
2023/07/22 08:11:00;;;;;;;18.45;9.52;;;15.90;80.70;;;;;;5049574;28;20602;-76
2023/07/22 08:13:29;;;;;;;19.57;9.57;;;16.00;80.30;;;;;;5048332;28;20142;-76
2023/07/22 08:15:58;;;;;;;19.52;9.60;;;16.00;80.00;;;;;;5049670;28;20314;-76
2023/07/22 08:18:25;;;;;;;18.27;9.32;;;16.00;80.20;;;;;;5048075;28;20781;-76
2023/07/22 08:20:53;;;;;;;19.15;9.57;;;16.00;80.10;;;;;;5049447;28;20080;-76
2023/07/22 08:23:20;;;;;;;20.00;9.00;;;16.10;80.00;;;;;;5049546;28;20080;-76
2023/07/22 08:25:47;;;;;;;18.87;8.83;;;16.10;79.90;;;;;;5048116;28;20084;-76
2023/07/22 08:28:14;;;;;;;18.58;10.18;;;16.10;80.00;;;;;;5049293;28;20344;-76
2023/07/22 08:30:42;;;;;;;20.65;9.05;;;16.20;80.20;;;;;;5047781;28;20112;-76
2023/07/22 08:33:12;;;;;;;18.83;9.68;;;16.20;80.30;;;;;;5049089;28;20053;-75
2023/07/22 08:35:39;;;;;;;19.25;9.27;;;16.20;80.30;;;;;;5047690;28;20060;-76
2023/07/22 08:38:06;;;;;;;16.80;8.80;;;16.30;80.50;;;;;;5047850;28;20520;-75
2023/07/22 08:40:37;;;;;;;16.05;8.90;;;16.40;80.70;;;;;;5031099;28;20273;-76
2023/07/22 08:43:06;;;;;;;19.10;8.50;;;16.40;80.70;;;;;;5049098;28;20132;-76
2023/07/22 08:45:36;;;;;;;18.83;9.85;;;16.40;81.10;;;;;;5048841;28;20136;-76
2023/07/22 08:48:07;;;;;;;17.80;9.05;;;16.40;81.00;;;;;;5049391;28;20053;-76
2023/07/22 08:50:43;;;;;;;19.30;9.17;;;16.40;80.90;;;;;;5047371;28;20049;-75
2023/07/22 08:53:11;;;;;;;18.75;9.48;;;16.50;80.80;;;;;;5049112;28;20272;-75
2023/07/22 08:55:39;;;;;;;17.27;8.73;;;16.50;80.60;;;;;;5047678;28;20107;-76
2023/07/22 08:58:08;;;;;;;19.35;9.23;;;16.50;80.70;;;;;;5047720;28;20053;-76
2023/07/22 09:00:35;;;;;;;15.82;7.88;;;16.50;80.80;;;;;;5047120;28;20053;-76
2023/07/22 09:03:03;;;;;;;15.30;8.37;;;16.50;80.80;;;;;;5031029;28;20056;-76
2023/07/22 09:05:32;;;;;;;15.15;8.02;;;16.50;80.30;;;;;;5047511;28;20875;-76
2023/07/22 09:08:02;;;;;;;15.05;8.35;;;16.50;80.20;;;;;;5047393;28;20495;-76
2023/07/22 09:10:29;;;;;;;15.00;7.88;;;16.50;80.50;;;;;;5047118;28;20060;-76
2023/07/22 09:12:57;;;;;;;15.80;7.82;;;16.50;80.20;;;;;;5047503;28;20080;-76
2023/07/22 09:15:25;;;;;;;16.67;8.33;;;16.50;80.20;;;;;;5049185;28;20470;-76
2023/07/22 09:17:52;;;;;;;15.07;7.38;;;16.40;80.40;;;;;;5031052;28;20283;-75
2023/07/22 09:20:20;;;;;;;15.25;7.35;;;16.40;80.70;;;;;;5048477;28;20088;-76
2023/07/22 09:22:49;;;;;;;17.17;7.45;;;16.40;80.70;;;;;;5046585;28;20053;-76
2023/07/22 09:25:19;;;;;;;14.60;6.78;;;16.40;80.70;;;;;;5049286;28;20053;-75
2023/07/22 09:27:47;;;;;;;13.30;6.50;;;16.40;80.90;;;;;;5031147;28;20698;-75
2023/07/22 09:30:25;;;;;;;8.50;3.55;;;16.40;80.70;;;;;;5047061;28;20276;-75
2023/07/22 09:32:53;;;;;;;8.75;3.47;;;16.40;80.50;;;;;;5047241;28;20128;-76
2023/07/22 09:35:21;;;;;;;7.35;3.28;;;16.40;80.00;;;;;;5030331;28;20048;-76
2023/07/22 09:37:48;;;;;;;8.07;3.03;;;16.40;79.30;;;;;;5047414;28;20129;-75
2023/07/22 09:40:20;;;;;;;7.00;3.20;;;16.30;78.40;;;;;;5046836;28;20152;-76
2023/07/22 09:42:49;;;;;;;7.32;3.22;;;16.30;78.10;;;;;;5048218;28;20260;-76
2023/07/22 09:45:16;;;;;;;7.32;3.38;;;16.30;78.10;;;;;;5048732;28;20084;-75
2023/07/22 09:47:44;;;;;;;7.57;3.28;;;16.30;78.20;;;;;;5047078;28;20042;-75
2023/07/22 09:50:16;;;;;;;7.53;3.83;;;16.30;78.40;;;;;;5046823;28;20128;-75
2023/07/22 09:52:48;;;;;;;10.00;4.47;;;16.30;78.30;;;;;;5049081;28;20662;-75
2023/07/22 09:55:16;;;;;;;8.60;4.30;;;16.40;78.30;;;;;;5046900;28;20750;-76
2023/07/22 09:57:48;;;;;;;8.38;4.00;;;16.40;78.10;;;;;;5046666;28;20042;-76
2023/07/22 10:00:19;;;;;;;7.53;3.70;;;16.40;78.00;;;;;;5047870;28;20483;-76
2023/07/22 10:02:50;;;;;;;8.68;4.00;;;16.40;78.10;;;;;;5046574;28;20147;-75
2023/07/22 10:05:18;;;;;;;10.10;4.37;;;16.40;78.00;;;;;;5046888;28;20053;-75
2023/07/22 10:07:47;;;;;;;7.90;4.30;;;16.40;78.10;;;;;;5048460;28;20265;-76
2023/07/22 10:10:17;;;;;;;8.82;4.28;;;16.40;78.30;;;;;;5046507;28;20050;-75
2023/07/22 10:12:45;;;;;;;11.15;4.60;;;16.50;78.40;;;;;;5046642;28;20049;-76
2023/07/22 10:15:14;;;;;;;9.05;4.15;;;16.50;78.30;;;;;;5046573;28;20050;-76
2023/07/22 10:17:43;;;;;;;11.43;5.20;;;16.50;78.30;;;;;;5046612;28;20048;-76
2023/07/22 10:20:15;;;;;;;10.00;5.10;;;16.60;78.20;;;;;;5046660;28;20414;-76
2023/07/22 10:22:44;;;;;;;9.50;4.97;;;16.60;78.20;;;;;;5046390;28;20049;-76
2023/07/22 10:25:13;;;;;;;12.63;5.82;;;16.60;78.20;;;;;;5029676;28;20054;-75
2023/07/22 10:27:41;;;;;;;10.35;5.30;;;16.60;78.20;;;;;;5047688;28;20057;-75
2023/07/22 10:30:11;;;;;;;9.43;5.00;;;16.60;78.20;;;;;;5046337;28;20143;-76
2023/07/22 10:32:40;;;;;;;10.15;4.93;;;16.60;78.30;;;;;;5046269;28;20661;-75
2023/07/22 10:35:11;;;;;;;10.25;5.32;;;16.70;78.40;;;;;;5046150;28;20563;-76
2023/07/22 10:37:41;;;;;;;10.85;5.03;;;16.70;78.60;;;;;;5046702;28;20050;-75
2023/07/22 10:40:19;;;;;;;10.00;5.35;;;16.70;78.70;;;;;;5047832;28;20057;-76
2023/07/22 10:42:53;;;;;;;10.63;5.57;;;16.70;78.80;;;;;;5046414;28;20056;-75
2023/07/22 10:45:32;;;;;;;12.13;6.15;;;16.70;79.00;;;;;;5029473;28;20746;-76
2023/07/22 10:48:06;;;;;;;12.07;6.10;;;16.80;79.00;;;;;;5046428;28;20052;-76
2023/07/22 10:50:47;;;;;;;10.93;6.22;;;16.80;78.90;;;;;;5047285;28;20515;-75
2023/07/22 10:53:21;;;;;;;11.07;5.60;;;16.80;78.70;;;;;;5047022;28;20048;-75
2023/07/22 10:56:12;;;;;;;10.37;5.53;;;16.80;78.60;;;;;;5049428;28;20085;-76
2023/07/22 10:58:59;;;;;;;10.95;5.25;;;16.90;78.60;;;;;;5049064;28;20353;-75
2023/07/22 11:01:35;;;;;;;11.27;5.63;;;16.90;78.50;;;;;;5049291;28;20057;-76
2023/07/22 11:04:10;;;;;;;11.60;6.20;;;16.90;78.60;;;;;;5049868;28;20145;-75
2023/07/22 11:06:39;;;;;;;12.10;5.72;;;16.90;78.70;;;;;;5049366;28;20653;-75
2023/07/22 11:09:06;;;;;;;12.47;5.70;;;17.00;78.60;;;;;;5049514;28;20524;-75
2023/07/22 11:11:41;;;;;;;14.55;6.50;;;17.00;78.80;;;;;;5050467;28;20705;-75
2023/07/22 11:14:15;;;;;;;13.05;6.50;;;17.00;79.60;;;;;;5049516;28;20052;-75
2023/07/22 11:16:46;;;;;;;15.50;6.60;;;17.00;79.60;;;;;;5049179;28;20456;-76
2023/07/22 11:19:14;;;;;;;14.32;6.63;;;17.00;79.50;;;;;;5049108;28;20038;-75
2023/07/22 11:21:42;;;;;;;14.07;6.93;;;16.90;79.70;;;;;;5048591;28;20056;-76
2023/07/22 11:24:09;;;;;;;15.07;7.13;;;16.90;79.70;;;;;;5049136;28;20277;-76
2023/07/22 11:26:36;;;;;;;12.68;6.57;;;16.90;80.20;;;;;;5049066;28;20053;-75
2023/07/22 11:29:04;;;;;;;11.30;5.97;;;16.90;80.00;;;;;;5050254;28;20057;-75
2023/07/22 11:31:36;;;;;;;12.07;6.32;;;16.80;80.00;;;;;;5048863;28;20132;-75
2023/07/22 11:34:05;;;;;;;11.70;6.03;;;16.80;80.00;;;;;;5048762;28;20054;-75
2023/07/22 11:36:34;;;;;;;9.13;4.88;;;16.80;80.20;;;;;;5049699;28;20786;-75
2023/07/22 11:39:05;;;;;;;9.15;5.32;;;16.70;80.40;;;;;;5048911;28;20654;-75
2023/07/22 11:41:33;;;;;;;8.45;5.10;;;16.70;80.10;;;;;;5048576;28;20132;-75
2023/07/22 11:44:01;;;;;;;8.60;5.40;;;16.70;80.00;;;;;;5049068;28;20562;-75
2023/07/22 11:46:29;;;;;;;9.20;5.13;;;16.70;79.90;;;;;;5048137;28;20471;-75
2023/07/22 11:48:56;;;;;;;8.82;5.53;;;16.70;79.80;;;;;;5050229;28;20261;-75
2023/07/22 11:51:26;;;;;;;9.25;5.70;;;16.70;79.80;;;;;;5048099;28;20049;-76
2023/07/22 11:53:55;;;;;;;9.38;5.40;;;16.60;79.80;;;;;;5048647;28;20069;-75
2023/07/22 11:56:23;;;;;;;9.18;5.70;;;16.60;80.00;;;;;;5048433;28;20376;-75
2023/07/22 11:58:51;;;;;;;8.53;5.43;;;16.60;80.10;;;;;;5050317;28;20049;-75
2023/07/22 12:01:18;;;;;;;9.88;5.95;;;16.60;80.30;;;;;;5031508;28;20804;-75
2023/07/22 12:03:45;;;;;;;9.68;5.45;;;16.60;80.30;;;;;;5050038;28;20085;-76
2023/07/22 12:06:12;;;;;;;11.27;6.82;;;16.60;80.50;;;;;;5048109;28;20058;-75
2023/07/22 12:08:47;;;;;;;11.30;6.55;;;16.60;80.60;;;;;;5048495;28;20045;-75
2023/07/22 12:11:18;;;;;;;13.10;6.93;;;16.60;80.70;;;;;;5049326;28;20071;-76
2023/07/22 12:13:46;;;;;;;10.40;6.22;;;16.60;80.80;;;;;;5048409;28;21058;-75
2023/07/22 12:16:14;;;;;;;9.85;6.78;;;16.70;80.90;;;;;;5048547;28;20492;-76
2023/07/22 12:18:45;;;;;;;12.82;7.05;;;16.60;81.00;;;;;;5048410;28;20609;-75
2023/07/22 12:21:12;;;;;;;10.93;7.00;;;16.60;81.10;;;;;;5047887;28;20049;-75
2023/07/22 12:23:39;;;;;;;12.73;7.47;;;16.60;81.00;;;;;;5049669;28;20053;-76
2023/07/22 12:26:07;;;;;;;11.27;7.10;;;16.60;81.20;;;;;;5049298;28;20336;-75
2023/07/22 12:28:34;;;;;;;13.10;7.93;;;16.60;81.40;;;;;;5031142;28;20041;-75
2023/07/22 12:31:01;;;;;;;10.75;7.57;;;16.60;81.70;;;;;;5031556;28;20050;-75
2023/07/22 12:33:29;;;;;;;12.38;7.65;;;16.60;81.60;;;;;;5031524;28;20516;-76
2023/07/22 12:35:57;;;;;;;12.13;7.27;;;16.60;81.70;;;;;;5047989;28;20045;-76
2023/07/22 12:38:24;;;;;;;13.50;8.25;;;16.60;81.80;;;;;;5047948;28;20245;-75
2023/07/22 12:40:51;;;;;;;14.93;9.32;;;16.60;81.90;;;;;;5047514;28;20100;-75
2023/07/22 12:43:19;;;;;;;12.00;8.27;;;16.60;82.60;;;;;;5049395;28;20048;-75